createdAt,value
2018-12-22T00:01:31.459Z,98910.34
2018-12-22T00:06:34.810Z,98911.83
2018-12-22T00:11:38.253Z,98910.34
2018-12-22T00:16:41.646Z,98919.05
2018-12-22T00:21:44.966Z,98920.75
2018-12-22T00:26:48.394Z,98935.05
2018-12-22T00:31:51.792Z,98937.95
2018-12-22T00:36:55.185Z,98939.94
2018-12-22T00:41:58.540Z,98949.36
2018-12-22T00:47:02.022Z,98960.48
2018-12-22T00:52:05.442Z,98970.55
2018-12-22T00:57:08.779Z,98970.05
2018-12-22T01:02:12.261Z,98977.77
2018-12-22T01:07:15.553Z,98987.55
2018-12-22T01:12:18.929Z,98983.59
2018-12-22T01:17:22.248Z,98978.48
2018-12-22T01:22:25.787Z,98975.08
2018-12-22T01:27:29.208Z,98985.00
2018-12-22T01:32:32.557Z,98994.77
2018-12-22T01:37:35.942Z,98990.23
2018-12-22T01:42:39.338Z,98994.27
2018-12-22T01:47:42.703Z,98994.63
2018-12-22T01:52:46.170Z,98993.78
2018-12-22T01:57:49.502Z,98991.23
2018-12-22T02:02:52.849Z,99002.84
2018-12-22T02:07:56.195Z,99006.04
2018-12-22T02:12:59.502Z,99021.69
2018-12-22T02:18:02.818Z,99028.06
2018-12-22T02:23:06.184Z,99029.88
2018-12-22T02:28:09.649Z,99040.30
2018-12-22T02:33:12.948Z,99050.21
2018-12-22T02:38:16.268Z,99058.28
2018-12-22T02:43:19.607Z,99064.31
2018-12-22T02:48:22.907Z,99072.73
2018-12-22T02:53:26.202Z,99078.47
2018-12-22T02:58:29.522Z,99080.95
2018-12-22T03:03:32.830Z,99080.22
2018-12-22T03:08:36.195Z,99077.17
2018-12-22T03:13:39.513Z,99073.98
2018-12-22T03:18:42.829Z,99071.44
2018-12-22T03:23:46.230Z,99080.16
2018-12-22T03:28:49.550Z,99095.45
2018-12-22T03:33:52.945Z,99095.91
2018-12-22T03:38:56.253Z,99096.06
2018-12-22T03:43:59.581Z,99092.52
2018-12-22T03:49:02.926Z,99078.21
2018-12-22T03:54:06.253Z,99078.82
2018-12-22T03:59:09.621Z,99082.75
2018-12-22T04:04:13.049Z,99081.86
2018-12-22T04:09:16.494Z,99078.33
2018-12-22T04:14:19.832Z,99095.31
2018-12-22T04:19:23.180Z,99094.67
2018-12-22T04:24:26.714Z,99095.61
2018-12-22T04:29:33.939Z,99096.32
2018-12-22T04:34:35.431Z,99096.32
2018-12-22T04:39:39.057Z,99092.92
2018-12-22T04:44:42.447Z,99095.41
2018-12-22T04:49:45.790Z,99104.83
2018-12-22T04:54:49.142Z,99102.59
2018-12-22T04:59:52.507Z,99099.20
2018-12-22T05:04:55.929Z,99098.70
2018-12-22T05:09:59.312Z,99100.69
2018-12-22T05:15:02.706Z,99101.30
2018-12-22T05:20:06.843Z,99099.25
2018-12-22T05:25:10.188Z,99095.70
2018-12-22T05:30:13.674Z,99099.36
2018-12-22T05:35:16.982Z,99098.27
2018-12-22T05:40:20.353Z,99113.91
2018-12-22T05:45:23.773Z,99118.80
2018-12-22T05:50:27.454Z,99110.86
2018-12-22T05:55:30.826Z,99108.41
2018-12-22T06:00:34.133Z,99115.49
2018-12-22T06:05:37.559Z,99105.83
2018-12-22T06:10:40.983Z,99107.17
2018-12-22T06:15:44.382Z,99111.35
2018-12-22T06:20:47.877Z,99105.12
2018-12-22T06:25:51.373Z,99105.34
2018-12-22T06:30:54.719Z,99098.27
2018-12-22T06:35:58.119Z,99095.36
2018-12-22T06:41:01.466Z,99101.84
2018-12-22T06:46:05.029Z,99113.10
2018-12-22T06:51:08.511Z,99112.53
2018-12-22T06:56:11.856Z,99107.05
2018-12-22T07:01:15.199Z,99111.30
2018-12-22T07:06:18.493Z,99115.94
2018-12-22T07:11:21.818Z,99112.00
2018-12-22T07:16:25.126Z,99113.56
2018-12-22T07:21:28.535Z,99120.03
2018-12-22T07:26:31.856Z,99110.38
2018-12-22T07:31:35.160Z,99105.13
2018-12-22T07:36:38.496Z,99107.97
2018-12-22T07:41:41.794Z,99104.04
2018-12-22T07:46:45.100Z,99099.08
2018-12-22T07:51:48.436Z,99101.53
2018-12-22T07:56:51.736Z,99096.55
2018-12-22T08:01:55.026Z,99107.58
2018-12-22T08:06:58.649Z,99112.30
2018-12-22T08:12:01.946Z,99128.30
2018-12-22T08:17:05.467Z,99133.44
2018-12-22T08:22:08.868Z,99113.06
2018-12-22T08:27:12.219Z,99103.18
2018-12-22T08:32:15.504Z,99091.30
2018-12-22T08:37:18.929Z,99098.12
2018-12-22T08:42:22.330Z,99112.68
2018-12-22T08:47:25.754Z,99121.16
2018-12-22T08:52:29.132Z,99136.88
2018-12-22T08:57:32.542Z,99131.97
2018-12-22T09:02:35.985Z,99130.69
2018-12-22T09:07:39.384Z,99138.27
2018-12-22T09:12:42.740Z,99145.98
2018-12-22T09:17:46.061Z,99147.56
2018-12-22T09:22:49.393Z,99142.68
2018-12-22T09:27:52.757Z,99150.50
2018-12-22T09:32:56.166Z,99160.41
2018-12-22T09:37:59.478Z,99153.46
2018-12-22T09:43:02.790Z,99162.52
2018-12-22T09:48:06.117Z,99159.34
2018-12-22T09:53:10.021Z,99166.91
2018-12-22T09:58:13.641Z,99171.41
2018-12-22T10:03:17.222Z,99174.12
2018-12-22T10:08:20.725Z,99202.73
2018-12-22T10:13:24.134Z,99224.75
2018-12-22T10:18:28.110Z,99234.77
2018-12-22T10:23:31.822Z,99235.61
2018-12-22T10:28:35.238Z,99243.19
2018-12-22T10:33:38.557Z,99270.09
2018-12-22T10:38:41.902Z,99267.89
2018-12-22T10:43:45.229Z,99276.45
2018-12-22T10:48:48.605Z,99292.37
2018-12-22T10:53:51.976Z,99316.81
2018-12-22T10:58:55.390Z,99339.45
2018-12-22T11:03:59.741Z,99336.98
2018-12-22T11:09:03.102Z,99337.62
2018-12-22T11:14:06.589Z,99344.83
2018-12-22T11:19:09.995Z,99350.08
2018-12-22T11:24:13.527Z,99353.63
2018-12-22T11:29:16.895Z,99355.45
2018-12-22T11:34:20.368Z,99373.05
2018-12-22T11:39:23.854Z,99389.44
2018-12-22T11:44:27.161Z,99404.34
2018-12-22T11:49:34.512Z,99433.58
2018-12-22T11:54:37.896Z,99435.89
2018-12-22T11:59:41.200Z,99440.19
2018-12-22T12:04:44.514Z,99454.23
2018-12-22T12:09:47.932Z,99467.08
2018-12-22T12:14:51.422Z,99473.67
2018-12-22T12:19:54.801Z,99489.72
2018-12-22T12:24:58.706Z,99512.96
2018-12-22T12:30:02.284Z,99516.64
2018-12-22T12:35:07.396Z,99534.36
2018-12-22T12:40:12.529Z,99547.45
2018-12-22T12:45:16.010Z,99565.08
2018-12-22T12:50:21.454Z,99574.23
2018-12-22T12:55:24.965Z,99583.02
2018-12-22T13:00:28.380Z,99593.07
2018-12-22T13:05:31.890Z,99603.96
2018-12-22T13:10:35.346Z,99614.59
2018-12-22T13:15:38.661Z,99620.25
2018-12-22T13:20:42.065Z,99639.19
2018-12-22T13:25:45.411Z,99648.59
2018-12-22T13:30:48.786Z,99663.05
2018-12-22T13:35:52.346Z,99675.42
2018-12-22T13:40:55.825Z,99699.24
2018-12-22T13:45:59.204Z,99702.33
2018-12-22T13:51:02.597Z,99716.02
2018-12-22T13:56:06.024Z,99725.66
2018-12-22T14:01:12.965Z,99745.27
2018-12-22T14:06:21.958Z,99749.30
2018-12-22T14:11:25.368Z,99750.39
2018-12-22T14:16:36.194Z,99766.66
2018-12-22T14:21:40.304Z,99779.03
2018-12-22T14:26:43.740Z,99781.39
2018-12-22T14:31:47.103Z,99795.70
2018-12-22T14:36:50.531Z,99798.42
2018-12-22T14:41:53.915Z,99807.73
2018-12-22T14:46:57.290Z,99811.77
2018-12-22T14:52:00.600Z,99827.28
2018-12-22T14:57:04.158Z,99835.36
2018-12-22T15:02:07.522Z,99838.63
2018-12-22T15:07:10.960Z,99851.51
2018-12-22T15:12:14.344Z,99864.91
2018-12-22T15:17:17.669Z,99880.94
2018-12-22T15:22:21.215Z,99886.22
2018-12-22T15:27:25.110Z,99886.98
2018-12-22T15:32:28.410Z,99889.06
2018-12-22T15:37:31.730Z,99893.10
2018-12-22T15:42:35.148Z,99889.06
2018-12-22T15:47:38.640Z,99890.75
2018-12-22T15:52:42.112Z,99885.16
2018-12-22T15:57:45.529Z,99890.91
2018-12-22T16:02:53.164Z,99879.64
2018-12-22T16:07:54.291Z,99888.85
2018-12-22T16:12:57.597Z,99890.81
2018-12-22T16:18:01.043Z,99885.42
2018-12-22T16:23:04.979Z,99882.98
2018-12-22T16:28:27.390Z,99891.05
2018-12-22T16:33:30.747Z,99894.97
2018-12-22T16:38:34.078Z,99899.71
2018-12-22T16:43:38.152Z,99900.14
2018-12-22T16:48:44.434Z,99908.67
2018-12-22T16:53:47.743Z,99909.87
2018-12-22T16:58:55.261Z,99919.87
2018-12-22T17:03:58.570Z,99926.08
2018-12-22T17:09:01.973Z,99927.91
2018-12-22T17:14:05.377Z,99937.55
2018-12-22T17:19:08.769Z,99943.94
2018-12-22T17:24:20.373Z,99940.42
2018-12-22T17:29:23.685Z,99955.02
2018-12-22T17:34:27.002Z,99954.09
2018-12-22T17:39:36.618Z,99951.78
2018-12-22T17:44:35.776Z,99959.92
2018-12-22T17:49:39.152Z,99961.97
2018-12-22T17:54:42.458Z,99956.92
2018-12-22T17:59:45.911Z,99952.66
2018-12-22T18:04:49.219Z,99948.35
2018-12-22T18:09:52.561Z,99947.98
2018-12-22T18:14:56.053Z,99957.53
2018-12-22T18:19:59.336Z,99960.47
2018-12-22T18:25:02.935Z,99971.36
2018-12-22T18:30:08.981Z,99970.13
2018-12-22T18:35:13.026Z,99945.14
2018-12-22T18:40:18.679Z,99961.05
2018-12-22T18:45:21.973Z,99964.84
2018-12-22T18:50:26.885Z,99960.80
2018-12-22T18:55:30.241Z,99968.39
2018-12-22T19:00:33.643Z,99976.46
2018-12-22T19:05:36.949Z,99982.80
2018-12-22T19:10:45.999Z,100001.27
2018-12-22T19:15:49.503Z,100005.31
2018-12-22T19:20:54.971Z,100005.42
2018-12-22T19:25:58.261Z,100003.96
2018-12-22T19:31:02.280Z,100002.83
2018-12-22T19:36:05.750Z,100011.39
2018-12-22T19:41:09.081Z,100007.51
2018-12-22T19:46:12.434Z,100010.98
2018-12-22T19:51:15.933Z,100020.04
2018-12-22T19:56:19.284Z,100011.59
2018-12-22T20:01:22.747Z,100012.33
2018-12-22T20:06:26.102Z,100009.88
2018-12-22T20:11:29.578Z,100021.50
2018-12-22T20:16:32.919Z,100029.09
2018-12-22T20:21:36.268Z,100026.03
2018-12-22T20:26:40.051Z,100039.00
2018-12-22T20:31:44.199Z,100048.42
2018-12-22T20:36:47.638Z,100047.45
2018-12-22T20:41:51.028Z,100049.40
2018-12-22T20:46:54.517Z,100056.98
2018-12-22T20:51:57.915Z,100047.56
2018-12-22T20:57:01.368Z,100054.63
2018-12-22T21:02:05.454Z,100053.97
2018-12-22T21:07:08.856Z,100054.63
2018-12-22T21:12:12.225Z,100049.67
2018-12-22T21:17:15.561Z,100059.06
2018-12-22T21:22:18.886Z,100070.89
2018-12-22T21:27:22.221Z,100070.03
2018-12-22T21:32:25.642Z,100076.36
2018-12-22T21:37:28.963Z,100081.29
2018-12-22T21:42:33.372Z,100077.62
2018-12-22T21:47:36.678Z,100089.25
2018-12-22T21:52:40.182Z,100094.27
2018-12-22T21:57:43.522Z,100104.53
2018-12-22T22:02:46.849Z,100105.88
2018-12-22T22:07:50.166Z,100113.11
2018-12-22T22:12:53.520Z,100109.92
2018-12-22T22:17:56.886Z,100117.22
2018-12-22T22:23:00.206Z,100119.92
2018-12-22T22:28:03.621Z,100121.75
2018-12-22T22:33:06.927Z,100121.34
2018-12-22T22:38:10.281Z,100127.42
2018-12-22T22:43:13.655Z,100138.07
2018-12-22T22:48:16.970Z,100143.37
2018-12-22T22:53:20.376Z,100150.35
2018-12-22T22:58:23.769Z,100156.83
2018-12-22T23:03:27.070Z,100164.05
2018-12-22T23:08:30.385Z,100166.25
2018-12-22T23:13:33.693Z,100180.94
2018-12-22T23:18:37.015Z,100193.42
2018-12-22T23:23:40.345Z,100186.81
2018-12-22T23:28:43.764Z,100198.81
2018-12-22T23:33:47.189Z,100201.93
2018-12-22T23:38:50.488Z,100206.58
2018-12-22T23:43:53.802Z,100207.55
2018-12-22T23:48:57.218Z,100216.48
2018-12-22T23:54:00.569Z,100218.20
2018-12-22T23:59:04.030Z,100222.23
